Almo, Idaho
Current Conditions -  °F | °C
As of 8:53 AM on Friday 24 Oct 2014 (Local Time) from KBYI Reporting Station
Broken Clouds Broken Clouds  
Wind Chill: 46°   Ceiling: 10000
Heat Index: 46°   Visibility: 10mi
Dew Point: 39°   Wind: 0mph
Humidity: 76%   Direction: NA
Pressure: 30.11"   Gusts: NA
Location:  42.1°N, 113.64°W
Report Text: KBYI 241453Z AUTO 00000KT 10SM BKN100 08/04 A3011 RMK AO2 SLP187 T00780039 58001
Loading
Personal Weather Stations






























Interactive Weather Map
Tropical Storm Tracking
New forecast layout! Learn more

10-Day Weather Forecast

Advertisements
Track Severe Weather on mobile